Search for airport 
image banner adimage banner adimage banner ad
image banner ad

43L - Van Nuys County Court

Located in Los Angeles, United States

ICAO - 43L, IATA -

Data provided by Airmate  

General information

Coordinates: N34°10'60" W118°26'48"
Elevation is 850 feet MSL.
Magnetic variation is 14° East
View others Airports in California

Operational data

Special qualification required
Current time UTC:
Current local time:
Weather at : KVNY - Van Nuys ( 5 km )
METAR: KVNY 210851Z 16003KT 10SM CLR 18/14 A2992 RMK AO2 SLP122 T01780139 56002
TAF: KVNY 210551Z 2106/2206 13005KT P6SM SKC FM211200 VRB03KT 1 1/2SM BR BKN003 FM211530 12007KT P6SM SKC FM212100 14010KT P6SM SKC FM220300 12006KT P6SM SKC
View NOTAMs / SUP AIP / TFR affecting this airport [VIEW]
Communications frequencies: [VIEW]

Runways:

Airport contact information

Address: Los Angeles United States

Satellite view of 43L